»·PEaware :: N191TB KSBD-KEMT

N191TB :: KSBD-KEMT

FLIGHT INFORMATION

Flight Status: Arrived
Operator: Privately registered:
United States
More flights under this callsign
Pilot: Tim F. (26756)
Aircraft: CESSNA 172 SKYHAWK
(C172)
More flights by this aircraft type
Origin: KSBD San Bernardino Intl
United States
Destination: KEMT El Monte
United States
More flights between these airports :: More routes between these airports
Route: +
File this flight plan on PilotEdge
Remarks: CAT7
Altitude:
(Current/Filed)
0ft
Speed:
(Current/Filed)
0kts
Departed: 07-Nov-19 09:50 PM
Arrived: 07-Nov-19 10:26 PM
Distance/Time
Traveled:
40nm/0:36
Distance/Time
To Go:
Arrived

Flight Plot

Page will automatically refresh every two minutes.


Map Options




Map Legend


Flown Route
Filed Route
Departure Airport
Arrival Airport
Navaid (VOR, NDB)
Fix

Horizontal Profiles

Position Reports

Time Latitude Longitude Heading Altitude Ground
Speed
07-Nov-19 21:41 34.100069 -117.244560 179 1096ft 23kts
07-Nov-19 21:42 34.096860 -117.241972 177 1098ft 0kts
07-Nov-19 21:43 34.096768 -117.241966 176 1098ft 0kts
07-Nov-19 21:44 34.096768 -117.241966 176 1098ft 0kts
07-Nov-19 21:45 34.096762 -117.241965 177 1098ft 0kts
07-Nov-19 21:46 34.093367 -117.247666 249 1087ft 33kts
07-Nov-19 21:47 34.091871 -117.251583 158 1079ft 0kts
07-Nov-19 21:48 34.091697 -117.251275 106 1080ft 9kts
07-Nov-19 21:49 34.091709 -117.246885 71 1089ft 62kts
07-Nov-19 21:50 34.099046 -117.222733 68 1766ft 78kts
07-Nov-19 21:51 34.089966 -117.202650 175 2394ft 90kts
07-Nov-19 21:52 34.070146 -117.218849 230 3067ft 89kts
07-Nov-19 21:53 34.056142 -117.244249 237 3689ft 91kts
07-Nov-19 21:54 34.051346 -117.272555 288 4291ft 90kts
07-Nov-19 21:55 34.059664 -117.300849 324 4821ft 95kts
07-Nov-19 21:56 34.085564 -117.303291 0 5147ft 93kts
07-Nov-19 21:57 34.111506 -117.303016 358 5287ft 94kts
07-Nov-19 21:58 34.137899 -117.304974 354 5431ft 94kts
07-Nov-19 21:59 34.159765 -117.318062 286 5428ft 94kts
07-Nov-19 22:00 34.161863 -117.349465 271 5242ft 94kts
07-Nov-19 22:01 34.161589 -117.380599 264 5093ft 92kts
07-Nov-19 22:02 34.157047 -117.411923 260 5015ft 94kts
07-Nov-19 22:03 34.151971 -117.442903 257 4987ft 93kts
07-Nov-19 22:04 34.145011 -117.473083 253 4957ft 93kts
07-Nov-19 22:05 34.137173 -117.502948 257 5002ft 93kts
07-Nov-19 22:06 34.141650 -117.534346 292 5314ft 98kts
07-Nov-19 22:07 34.141821 -117.564418 235 5463ft 96kts
07-Nov-19 22:08 34.127977 -117.591032 243 5173ft 93kts
07-Nov-19 22:09 34.116537 -117.619027 244 4868ft 92kts
07-Nov-19 22:10 34.106130 -117.647559 250 4570ft 92kts
07-Nov-19 22:11 34.098018 -117.676626 251 4310ft 91kts
07-Nov-19 22:12 34.089949 -117.705684 255 4042ft 91kts
07-Nov-19 22:13 34.087026 -117.735939 266 3838ft 93kts
07-Nov-19 22:14 34.084491 -117.766854 265 4128ft 92kts
07-Nov-19 22:15 34.082113 -117.797758 264 4363ft 93kts
07-Nov-19 22:16 34.079062 -117.828788 260 4580ft 93kts
07-Nov-19 22:17 34.075065 -117.858734 262 4103ft 87kts
07-Nov-19 22:18 34.074296 -117.887301 269 3313ft 82kts
07-Nov-19 22:20 34.075843 -117.913354 292 2617ft 77kts
07-Nov-19 22:21 34.084340 -117.937136 298 2099ft 78kts
07-Nov-19 22:22 34.095069 -117.958928 283 1824ft 78kts
07-Nov-19 22:23 34.100048 -117.984647 280 1607ft 83kts
07-Nov-19 22:24 34.103389 -118.012553 276 1191ft 75kts
07-Nov-19 22:25 34.093043 -118.030863 205 404ft 80kts
07-Nov-19 22:26 34.085280 -118.034701 148 286ft 0kts
07-Nov-19 22:27 34.084337 -118.033616 206 288ft 0kts
07-Nov-19 22:28 34.084337 -118.033617 205 288ft 0kts
07-Nov-19 22:29 34.084337 -118.033617 205 288ft 0kts
07-Nov-19 22:30 34.084337 -118.033617 205 288ft 0kts
07-Nov-19 22:31 34.084337 -118.033617 205 288ft 0kts
07-Nov-19 22:32 34.084337 -118.033617 205 288ft 0kts
07-Nov-19 22:33 34.084337 -118.033617 205 288ft 0kts
07-Nov-19 22:34 34.084337 -118.033617 205 288ft 0kts
07-Nov-19 22:35 34.084337 -118.033617 205 288ft 0kts
07-Nov-19 22:36 34.084337 -118.033617 205 288ft 0kts
07-Nov-19 22:37 34.084337 -118.033617 205 288ft 0kts
07-Nov-19 22:37 34.084337 -118.033617 205 288ft 0kts
07-Nov-19 22:39 34.084337 -118.033617 205 288ft 0kts
07-Nov-19 22:40 34.084337 -118.033617 205 288ft 0kts

Navigation Log

Ident Type
Flight plan parsing failed, navigation log unavailable